Moko, Arkansas
Current Conditions -  °F | °C
As of 10:53 AM on Saturday 22 Nov 2014 (Local Time) from KUNO Reporting Station
Light Rain Light Rain  
Wind Chill: 52°   Ceiling: 4700
Heat Index: 52°   Visibility: 3mi
Dew Point: 46°   Wind: 9mph
Humidity: 80%   Direction: 180°S
Pressure: 30.13"   Gusts: NA
Location:  36.47°N, 91.84°W
Report Text: KUNO 221653Z AUTO 18008KT 3SM -RA FEW024 BKN047 OVC060 11/08 A3013 RMK AO2 LTG DSNT NE RAB23 SLP204 P0015 T01110078
Loading
Personal Weather Stations






























Interactive Weather Map New forecast layout! Learn more

10-Day Weather Forecast

Advertisements
Track Severe Weather on mobile